Schneifelwetter: Wetterstation Hallschlag, 537 m . NN
Wetterdaten: Samstag, 05.11.2011
Datum Zeit Temp. A. Feuchte A. Luftdruck Regen Wind Richtung Richtung Sonnenschein Helligkeit T Regen Taupunkt Windchill
05.11.2011 00:09 9,6 C 90 % 1004 hPa 0,0 l/m 11,5 km/h (2 Bft) NO 40 0 min 0 lux 0 min 8,0 C 6,3 C
05.11.2011 00:24 9,6 C 89 % 1004 hPa 0,0 l/m 11,3 km/h (2 Bft) NO22.5 35 0 min 0 lux 0 min 7,9 C 6,4 C
05.11.2011 00:39 9,7 C 89 % 1004 hPa 0,0 l/m 11,4 km/h (2 Bft) N-NO67.5 15 0 min 0 lux 0 min 8,0 C 6,5 C
05.11.2011 00:54 9,5 C 89 % 1004 hPa 0,0 l/m 6,5 km/h (2 Bft) N-NO 25 0 min 0 lux 0 min 7,8 C 9,5 C
05.11.2011 01:09 9,5 C 89 % 1004 hPa 0,0 l/m 11,0 km/h (2 Bft) N-NO 30 0 min 0 lux 0 min 7,8 C 6,5 C
05.11.2011 01:24 9,5 C 89 % 1004 hPa 0,0 l/m 8,5 km/h (2 Bft) N-NO 30 0 min 0 lux 0 min 7,8 C 8,0 C
05.11.2011 01:39 9,3 C 89 % 1004 hPa 0,0 l/m 3,1 km/h (1 Bft) N-NO 25 0 min 0 lux 0 min 7,6 C 9,3 C
05.11.2011 01:54 9,1 C 89 % 1004 hPa 0,0 l/m 0,0 km/h (0 Bft) N-NO 25 0 min 0 lux 0 min 7,4 C 9,1 C
05.11.2011 02:09 9,0 C 90 % 1004 hPa 0,0 l/m 9,2 km/h (2 Bft) N 355 0 min 0 lux 0 min 7,4 C 7,0 C
05.11.2011 02:24 8,8 C 90 % 1004 hPa 0,0 l/m 0,0 km/h (0 Bft) N 360 0 min 0 lux 0 min 7,3 C 8,8 C
05.11.2011 02:39 8,7 C 91 % 1003 hPa 0,0 l/m 9,7 km/h (2 Bft) N-NO67.5 15 0 min 0 lux 0 min 7,3 C 6,3 C
05.11.2011 02:54 8,9 C 91 % 1003 hPa 0,0 l/m 16,8 km/h (3 Bft) NO45 35 0 min 0 lux 0 min 7,5 C 3,0 C
05.11.2011 03:10 8,9 C 91 % 1003 hPa 0,0 l/m 18,8 km/h (3 Bft) NO22.5 40 0 min 0 lux 0 min 7,5 C 2,3 C
05.11.2011 03:25 8,9 C 90 % 1003 hPa 0,0 l/m 18,2 km/h (3 Bft) NO45 50 0 min 0 lux 0 min 7,4 C 2,5 C
05.11.2011 03:40 9,1 C 89 % 1003 hPa 0,0 l/m 21,8 km/h (4 Bft) O-NO22.5 65 0 min 0 lux 0 min 7,4 C 1,5 C
05.11.2011 03:55 9,1 C 88 % 1003 hPa 0,0 l/m 16,3 km/h (3 Bft) O-NO45 75 0 min 0 lux 0 min 7,2 C 3,5 C
05.11.2011 04:10 9,0 C 88 % 1003 hPa 0,0 l/m 13,6 km/h (3 Bft) O-NO45 70 0 min 0 lux 0 min 7,1 C 4,6 C
05.11.2011 04:25 9,1 C 87 % 1002 hPa 0,0 l/m 11,3 km/h (2 Bft) NO22.5 55 0 min 0 lux 0 min 7,1 C 5,9 C
05.11.2011 04:40 9,1 C 86 % 1002 hPa 0,0 l/m 12,5 km/h (3 Bft) N-NO22.5 30 0 min 0 lux 0 min 6,9 C 5,2 C
05.11.2011 04:55 8,9 C 86 % 1002 hPa 0,0 l/m 0,6 km/h (0 Bft) N-NO 15 0 min 0 lux 0 min 6,7 C 8,9 C
05.11.2011 05:10 8,8 C 86 % 1002 hPa 0,0 l/m 5,6 km/h (1 Bft) N-NO 15 0 min 0 lux 0 min 6,6 C 8,8 C
05.11.2011 05:25 8,8 C 86 % 1002 hPa 0,0 l/m 5,7 km/h (1 Bft) N-NW22.5 345 0 min 0 lux 0 min 6,6 C 8,8 C
05.11.2011 05:40 8,6 C 86 % 1002 hPa 0,0 l/m 7,9 km/h (2 Bft) W22.5 260 0 min 0 lux 0 min 6,4 C 7,5 C
05.11.2011 05:55 8,5 C 86 % 1002 hPa 0,0 l/m 5,7 km/h (1 Bft) NW 325 0 min 0 lux 0 min 6,3 C 8,5 C
05.11.2011 06:10 8,4 C 85 % 1003 hPa 0,0 l/m 5,9 km/h (2 Bft) NO 45 0 min 0 lux 0 min 6,0 C 8,4 C
05.11.2011 06:25 8,1 C 86 % 1003 hPa 0,0 l/m 4,8 km/h (1 Bft) W22.5 275 0 min 0 lux 0 min 5,9 C 8,1 C
05.11.2011 06:40 8,1 C 86 % 1003 hPa 0,0 l/m 5,7 km/h (1 Bft) N-NW22.5 335 0 min 0 lux 0 min 5,9 C 8,1 C
05.11.2011 06:55 7,7 C 86 % 1003 hPa 0,0 l/m 2,2 km/h (1 Bft) N-NW 345 0 min 0 lux 0 min 5,5 C 7,7 C
05.11.2011 07:10 7,3 C 87 % 1003 hPa 0,0 l/m 0,0 km/h (0 Bft) N-NW 345 0 min 0 lux 0 min 5,3 C 7,3 C
05.11.2011 07:25 6,9 C 88 % 1003 hPa 0,0 l/m 0,0 km/h (0 Bft) N-NW 345 0 min 333 lux 0 min 5,1 C 6,9 C
05.11.2011 07:40 6,7 C 88 % 1003 hPa 0,0 l/m 0,0 km/h (0 Bft) N-NW 345 0 min 699 lux 0 min 4,9 C 6,7 C
05.11.2011 07:55 6,4 C 89 % 1003 hPa 0,0 l/m 0,1 km/h (0 Bft) N-NW 345 0 min 1,36 klux 0 min 4,7 C 6,4 C
05.11.2011 08:10 6,4 C 90 % 1004 hPa 0,0 l/m 0,0 km/h (0 Bft) N-NW 345 0 min 2,23 klux 0 min 4,9 C 6,4 C
05.11.2011 08:25 7,0 C 90 % 1004 hPa 0,0 l/m 4,8 km/h (1 Bft) SO22.5 140 0 min 3,24 klux 0 min 5,5 C 7,0 C
05.11.2011 08:40 7,6 C 89 % 1004 hPa 0,0 l/m 9,8 km/h (2 Bft) N22.5 355 0 min 5,41 klux 0 min 5,9 C 5,1 C
05.11.2011 08:54 7,9 C 89 % 1004 hPa 0,0 l/m 0,1 km/h (0 Bft) N 355 0 min 6,57 klux 0 min 6,2 C 7,9 C
05.11.2011 09:09 8,4 C 89 % 1004 hPa 0,0 l/m 0,0 km/h (0 Bft) N 355 0 min 9,1 klux 0 min 6,7 C 8,4 C
05.11.2011 09:24 8,8 C 89 % 1004 hPa 0,0 l/m 4,6 km/h (1 Bft) N 355 0 min 10,9 klux 0 min 7,1 C 8,8 C
05.11.2011 09:39 9,2 C 88 % 1004 hPa 0,0 l/m 0,0 km/h (0 Bft) N 355 0 min 11,3 klux 0 min 7,3 C 9,2 C
05.11.2011 09:54 9,7 C 87 % 1004 hPa 0,0 l/m 0,0 km/h (0 Bft) N 355 0 min 24,6 klux 0 min 7,6 C 9,7 C
05.11.2011 10:15 10,4 C 87 % 1004 hPa 0,0 l/m 0,0 km/h (0 Bft) N 355 0 min 25,8 klux 0 min 8,3 C 10,4 C
05.11.2011 10:30 11,1 C 85 % 1005 hPa 0,0 l/m 5,3 km/h (1 Bft) N 355 0 min 27,6 klux 0 min 8,7 C 11,1 C
05.11.2011 10:46 11,8 C 84 % 1005 hPa 0,0 l/m 4,3 km/h (1 Bft) SW45 215 0 min 34,3 klux 0 min 9,2 C 11,8 C
05.11.2011 11:01 12,4 C 82 % 1005 hPa 0,0 l/m 4,8 km/h (1 Bft) SW 220 0 min 36,5 klux 0 min 9,4 C 12,4 C
05.11.2011 11:15 13,0 C 81 % 1005 hPa 0,0 l/m 0,0 km/h (0 Bft) SW 220 14 min 40,8 klux 0 min 9,8 C 13,0 C
05.11.2011 11:30 13,4 C 80 % 1005 hPa 0,0 l/m 7,7 km/h (2 Bft) W-SW 240 15 min 40,2 klux 0 min 10,0 C 12,6 C
05.11.2011 11:45 13,9 C 79 % 1005 hPa 0,0 l/m 10,4 km/h (2 Bft) W-SW22.5 250 15 min 41,6 klux 0 min 10,3 C 11,7 C
05.11.2011 12:00 14,4 C 77 % 1005 hPa 0,0 l/m 12,3 km/h (3 Bft) SW22.5 215 15 min 47,4 klux 0 min 10,4 C 11,5 C
05.11.2011 12:16 14,6 C 76 % 1005 hPa 0,0 l/m 9,8 km/h (2 Bft) SW22.5 225 0 min 33,8 klux 0 min 10,4 C 12,8 C
05.11.2011 12:31 14,7 C 76 % 1005 hPa 0,0 l/m 12,0 km/h (2 Bft) W-SW 255 0 min 26,1 klux 0 min 10,5 C 11,9 C
05.11.2011 12:45 15,0 C 76 % 1005 hPa 0,0 l/m 11,3 km/h (2 Bft) W-SW22.5 250 0 min 31,7 klux 0 min 10,8 C 12,6 C
05.11.2011 13:00 15,1 C 75 % 1005 hPa 0,0 l/m 16,0 km/h (3 Bft) W22.5 260 0 min 20,7 klux 0 min 10,7 C 11,0 C
05.11.2011 13:15 15,1 C 75 % 1005 hPa 0,0 l/m 15,3 km/h (3 Bft) W-SW22.5 250 0 min 18,7 klux 0 min 10,7 C 11,2 C
05.11.2011 13:30 15,1 C 75 % 1005 hPa 0,0 l/m 11,5 km/h (2 Bft) W-SW22.5 250 0 min 17,0 klux 0 min 10,7 C 12,6 C
05.11.2011 13:46 15,2 C 74 % 1005 hPa 0,0 l/m 13,9 km/h (3 Bft) W22.5 260 0 min 36,3 klux 0 min 10,6 C 11,8 C
05.11.2011 14:01 15,6 C 73 % 1006 hPa 0,0 l/m 14,0 km/h (3 Bft) W-SW22.5 255 0 min 35,0 klux 0 min 10,8 C 12,2 C
05.11.2011 14:15 15,4 C 73 % 1005 hPa 0,0 l/m 8,6 km/h (2 Bft) W-SW 245 0 min 22,1 klux 0 min 10,6 C 14,2 C
05.11.2011 14:30 15,1 C 74 % 1006 hPa 0,0 l/m 10,0 km/h (2 Bft) W-SW 240 0 min 16,2 klux 0 min 10,5 C 13,2 C
05.11.2011 14:45 15,0 C 74 % 1006 hPa 0,0 l/m 9,4 km/h (2 Bft) W-SW22.5 245 0 min 15,7 klux 0 min 10,4 C 13,4 C
05.11.2011 15:00 15,0 C 74 % 1006 hPa 0,0 l/m 0,0 km/h (0 Bft) W-SW 240 0 min 20,1 klux 0 min 10,4 C 15,0 C
05.11.2011 15:16 15,0 C 73 % 1006 hPa 0,0 l/m 0,0 km/h (0 Bft) W-SW 240 0 min 21,5 klux 0 min 10,2 C 15,0 C
05.11.2011 15:30 15,0 C 74 % 1006 hPa 0,0 l/m 0,0 km/h (0 Bft) W-SW 240 0 min 25,9 klux 0 min 10,4 C 15,0 C
05.11.2011 15:45 14,6 C 74 % 1006 hPa 0,0 l/m 4,5 km/h (1 Bft) S-SW 205 0 min 21,6 klux 0 min 10,0 C 14,6 C
05.11.2011 16:00 14,0 C 74 % 1006 hPa 0,0 l/m 0,0 km/h (0 Bft) SW 220 0 min 6,51 klux 0 min 9,4 C 14,0 C
05.11.2011 16:15 13,2 C 76 % 1007 hPa 0,0 l/m 0,0 km/h (0 Bft) SW 220 0 min 9,4 klux 0 min 9,1 C 13,2 C
05.11.2011 16:30 12,5 C 77 % 1007 hPa 0,0 l/m 0,0 km/h (0 Bft) SW 220 0 min 5,90 klux 0 min 8,6 C 12,5 C
05.11.2011 16:46 11,9 C 79 % 1007 hPa 0,0 l/m 0,0 km/h (0 Bft) SW 220 0 min 3,30 klux 0 min 8,4 C 11,9 C
05.11.2011 17:00 11,2 C 80 % 1007 hPa 0,0 l/m 0,0 km/h (0 Bft) SW 220 0 min 1,49 klux 0 min 7,9 C 11,2 C
05.11.2011 17:15 10,5 C 82 % 1007 hPa 0,0 l/m 0,0 km/h (0 Bft) SW 220 0 min 447 lux 0 min 7,6 C 10,5 C
05.11.2011 17:30 10,0 C 83 % 1007 hPa 0,0 l/m 0,0 km/h (0 Bft) SW 220 0 min 68 lux 0 min 7,2 C 10,0 C
05.11.2011 17:45 9,6 C 84 % 1007 hPa 0,0 l/m 0,0 km/h (0 Bft) SW 220 0 min 9 lux 0 min 7,0 C 9,6 C
05.11.2011 18:00 9,1 C 85 % 1007 hPa 0,0 l/m 0,0 km/h (0 Bft) SW 220 0 min 0 lux 0 min 6,7 C 9,1 C
05.11.2011 18:16 8,6 C 85 % 1007 hPa 0,0 l/m 0,0 km/h (0 Bft) SW 220 0 min 0 lux 0 min 6,2 C 8,6 C
05.11.2011 18:30 8,2 C 87 % 1007 hPa 0,0 l/m 0,0 km/h (0 Bft) SW 220 0 min 0 lux 0 min 6,2 C 8,2 C
05.11.2011 18:45 7,9 C 88 % 1007 hPa 0,0 l/m 0,0 km/h (0 Bft) SW 220 0 min 0 lux 0 min 6,0 C 7,9 C
05.11.2011 19:00 7,4 C 88 % 1007 hPa 0,0 l/m 0,0 km/h (0 Bft) SW 220 0 min 0 lux 0 min 5,5 C 7,4 C
05.11.2011 19:15 7,2 C 89 % 1008 hPa 0,0 l/m 0,0 km/h (0 Bft) SW 220 0 min 0 lux 0 min 5,5 C 7,2 C
05.11.2011 19:30 7,0 C 90 % 1008 hPa 0,0 l/m 0,0 km/h (0 Bft) SW 220 0 min 0 lux 0 min 5,5 C 7,0 C
05.11.2011 19:46 6,7 C 90 % 1008 hPa 0,0 l/m 0,0 km/h (0 Bft) SW 220 0 min 0 lux 0 min 5,2 C 6,7 C
05.11.2011 20:00 6,5 C 91 % 1008 hPa 0,0 l/m 0,0 km/h (0 Bft) SW 220 0 min 0 lux 0 min 5,1 C 6,5 C
05.11.2011 20:15 6,6 C 91 % 1008 hPa 0,0 l/m 0,0 km/h (0 Bft) SW 220 0 min 0 lux 0 min 5,2 C 6,6 C
05.11.2011 20:30 6,7 C 92 % 1008 hPa 0,0 l/m 0,0 km/h (0 Bft) SW 220 0 min 0 lux 0 min 5,5 C 6,7 C
05.11.2011 20:45 6,6 C 91 % 1008 hPa 0,0 l/m 0,0 km/h (0 Bft) SW 220 0 min 0 lux 0 min 5,2 C 6,6 C
05.11.2011 21:00 6,4 C 91 % 1008 hPa 0,0 l/m 0,0 km/h (0 Bft) SW 220 0 min 0 lux 0 min 5,0 C 6,4 C
05.11.2011 21:16 6,2 C 92 % 1008 hPa 0,0 l/m 0,0 km/h (0 Bft) SW 220 0 min 0 lux 0 min 5,0 C 6,2 C
05.11.2011 21:30 5,9 C 93 % 1009 hPa 0,0 l/m 0,0 km/h (0 Bft) SW 220 0 min 0 lux 0 min 4,9 C 5,9 C
05.11.2011 21:45 6,0 C 93 % 1009 hPa 0,0 l/m 0,0 km/h (0 Bft) SW 220 0 min 0 lux 0 min 5,0 C 6,0 C
05.11.2011 22:00 5,9 C 94 % 1009 hPa 0,0 l/m 0,0 km/h (0 Bft) SW 220 0 min 0 lux 0 min 5,0 C 5,9 C
05.11.2011 22:15 5,8 C 94 % 1009 hPa 0,0 l/m 0,0 km/h (0 Bft) SW 220 0 min 0 lux 0 min 4,9 C 5,8 C
05.11.2011 22:30 5,8 C 94 % 1009 hPa 0,0 l/m 0,0 km/h (0 Bft) SW 220 0 min 0 lux 0 min 4,9 C 5,8 C
05.11.2011 22:46 5,7 C 94 % 1009 hPa 0,0 l/m 0,0 km/h (0 Bft) SW 220 0 min 0 lux 0 min 4,8 C 5,7 C
05.11.2011 23:01 5,2 C 94 % 1009 hPa 0,0 l/m 0,0 km/h (0 Bft) SW 220 0 min 0 lux 0 min 4,3 C 5,2 C
05.11.2011 23:00 5,2 C 94 % 1009 hPa 0,0 l/m 0,0 km/h (0 Bft) SW 220 0 min 0 lux 0 min 4,3 C 5,2 C
05.11.2011 23:15 5,2 C 94 % 1009 hPa 0,0 l/m 0,0 km/h (0 Bft) SW 220 0 min 0 lux 0 min 4,3 C 5,2 C
05.11.2011 23:30 4,7 C 94 % 1009 hPa 0,0 l/m 0,0 km/h (0 Bft) SW 220 0 min 0 lux 0 min 3,8 C 4,7 C
05.11.2011 23:46 5,1 C 95 % 1009 hPa 0,0 l/m 0,0 km/h (0 Bft) SW 220 0 min 0 lux 0 min 4,4 C 5,1 C
_ Min-Zeit 23:30 14:01 04:25 - 01:54 - - - - - 23:30 03:40
Minimum _ 4,7 C 73 % 1002 hPa - 0,0 km/h (0 Bft) - - - - - 3,8 C 1,5 C
_ Max-Zeit 14:01 23:46 21:30 00:09 03:40 - - 11:30 12:00 00:09 12:45 15:00
Maximum _ 15,6 C 95 % 1009 hPa 0,0 l/m 21,8 km/h
O-NO (4 Bft)
- - 15 min 47,4 klux 0 min 10,8 C 15,0 C
Durchschnitt _ 9,7 C 86 % 1005 hPa #0,0 l/m 4,8 km/h (1 Bft) W-SW - #59 min. 8,10 klux #0 min. 7,3 C 8,6 C